createdAt,value
2018-03-04T00:00:10.979Z,76.90
2018-03-04T00:02:38.687Z,76.80
2018-03-04T00:05:07.471Z,76.70
2018-03-04T00:07:35.491Z,76.70
2018-03-04T00:10:03.464Z,76.90
2018-03-04T00:12:31.499Z,76.90
2018-03-04T00:14:59.187Z,76.90
2018-03-04T00:17:27.101Z,76.90
2018-03-04T00:19:56.060Z,76.60
2018-03-04T00:22:36.337Z,76.50
2018-03-04T00:25:13.408Z,76.40
2018-03-04T00:27:44.314Z,76.60
2018-03-04T00:30:12.220Z,76.50
2018-03-04T00:32:42.115Z,76.50
2018-03-04T00:35:10.646Z,76.20
2018-03-04T00:37:39.344Z,76.20
2018-03-04T00:40:10.982Z,76.20
2018-03-04T00:42:39.239Z,76.10
2018-03-04T00:45:07.920Z,76.10
2018-03-04T00:47:35.704Z,76.00
2018-03-04T00:50:03.989Z,76.00
2018-03-04T00:52:31.711Z,75.70
2018-03-04T00:55:00.313Z,75.80
2018-03-04T00:57:29.979Z,76.00
2018-03-04T00:59:57.684Z,76.00
2018-03-04T01:02:25.549Z,75.90
2018-03-04T01:04:53.430Z,75.90
2018-03-04T01:07:21.607Z,76.20
2018-03-04T01:09:49.523Z,76.30
2018-03-04T01:12:19.232Z,76.40
2018-03-04T01:14:47.123Z,76.10
2018-03-04T01:17:15.051Z,76.10
2018-03-04T01:19:42.808Z,76.10
2018-03-04T01:22:10.677Z,75.90
2018-03-04T01:24:38.435Z,75.80
2018-03-04T01:27:06.077Z,75.70
2018-03-04T01:29:34.786Z,75.90
2018-03-04T01:32:02.612Z,76.10
2018-03-04T01:34:30.330Z,76.00
2018-03-04T01:36:58.272Z,75.80
2018-03-04T01:39:25.960Z,76.00
2018-03-04T01:41:54.424Z,75.90
2018-03-04T01:44:23.070Z,75.90
2018-03-04T01:46:51.583Z,75.70
2018-03-04T01:49:20.024Z,76.00
2018-03-04T01:51:52.764Z,75.80
2018-03-04T01:54:20.435Z,75.90
2018-03-04T01:56:49.794Z,75.80
2018-03-04T01:59:17.678Z,75.60
2018-03-04T02:01:45.564Z,75.70
2018-03-04T02:04:13.642Z,75.70
2018-03-04T02:06:42.209Z,75.30
2018-03-04T02:09:09.934Z,75.30
2018-03-04T02:11:37.649Z,75.30
2018-03-04T02:14:06.129Z,75.40
2018-03-04T02:16:34.187Z,76.00
2018-03-04T02:19:02.966Z,75.40
2018-03-04T02:21:30.698Z,75.10
2018-03-04T02:23:58.367Z,75.20
2018-03-04T02:26:26.055Z,75.20
2018-03-04T02:28:54.835Z,75.10
2018-03-04T02:31:22.596Z,75.10
2018-03-04T02:33:50.389Z,75.20
2018-03-04T02:36:18.137Z,75.20
2018-03-04T02:38:46.583Z,75.20
2018-03-04T02:41:14.302Z,75.20
2018-03-04T02:43:42.958Z,75.20
2018-03-04T02:46:10.708Z,75.30
2018-03-04T02:48:38.380Z,75.20
2018-03-04T02:51:07.267Z,75.50
2018-03-04T02:53:35.425Z,75.40
2018-03-04T02:56:03.102Z,75.30
2018-03-04T02:58:31.965Z,75.30
2018-03-04T03:00:59.675Z,75.20
2018-03-04T03:03:28.220Z,75.10
2018-03-04T03:05:56.054Z,75.10
2018-03-04T03:08:24.528Z,74.90
2018-03-04T03:10:52.254Z,74.90
2018-03-04T03:13:20.709Z,75.00
2018-03-04T03:15:48.427Z,75.00
2018-03-04T03:18:16.164Z,74.90
2018-03-04T03:20:44.104Z,75.20
2018-03-04T03:23:15.167Z,75.10
2018-03-04T03:25:43.003Z,75.70
2018-03-04T03:28:10.814Z,75.10
2018-03-04T03:30:38.508Z,75.30
2018-03-04T03:33:06.938Z,75.60
2018-03-04T03:35:34.759Z,75.60
2018-03-04T03:38:02.483Z,75.60
2018-03-04T03:40:31.247Z,75.40
2018-03-04T03:42:59.240Z,75.30
2018-03-04T03:45:27.003Z,75.40
2018-03-04T03:47:54.757Z,75.20
2018-03-04T03:50:23.152Z,75.40
2018-03-04T03:52:51.256Z,75.40
2018-03-04T03:55:19.895Z,75.30
2018-03-04T03:57:47.965Z,75.70
2018-03-04T04:00:15.775Z,75.50
2018-03-04T04:02:43.573Z,75.20
2018-03-04T04:05:12.055Z,75.60
2018-03-04T04:07:39.858Z,75.60
2018-03-04T04:10:07.690Z,75.30
2018-03-04T04:12:35.429Z,75.50
2018-03-04T04:15:03.114Z,75.50
2018-03-04T04:17:31.638Z,75.40
2018-03-04T04:20:00.301Z,75.70
2018-03-04T04:22:28.845Z,75.90
2018-03-04T04:24:56.418Z,75.90
2018-03-04T04:27:24.192Z,75.80
2018-03-04T04:29:51.877Z,75.80
2018-03-04T04:32:19.858Z,75.70
2018-03-04T04:34:47.847Z,75.60
2018-03-04T04:37:15.696Z,75.60
2018-03-04T04:39:43.586Z,75.80
2018-03-04T04:42:12.921Z,76.00
2018-03-04T04:44:40.892Z,75.90
2018-03-04T04:47:08.660Z,75.80
2018-03-04T04:52:14.529Z,75.50
2018-03-04T04:54:42.409Z,75.60
2018-03-04T04:57:11.032Z,75.60
2018-03-04T04:59:40.285Z,75.70
2018-03-04T05:02:09.150Z,75.80
2018-03-04T05:04:38.091Z,76.10
2018-03-04T05:07:06.521Z,76.10
2018-03-04T05:09:34.330Z,76.00
2018-03-04T05:12:03.481Z,75.90
2018-03-04T05:14:31.276Z,75.70
2018-03-04T05:17:00.452Z,75.90
2018-03-04T05:19:29.120Z,75.80
2018-03-04T05:22:00.112Z,75.70
2018-03-04T05:24:28.250Z,75.80
2018-03-04T05:26:55.930Z,76.00
2018-03-04T05:29:27.767Z,76.10
2018-03-04T05:31:59.337Z,75.90
2018-03-04T05:34:28.321Z,76.00
2018-03-04T05:36:56.211Z,76.10
2018-03-04T05:39:24.900Z,76.10
2018-03-04T05:41:53.417Z,76.10
2018-03-04T05:44:21.349Z,76.10
2018-03-04T05:46:50.466Z,76.60
2018-03-04T05:49:18.452Z,76.30
2018-03-04T05:51:48.108Z,76.60
2018-03-04T05:54:16.745Z,76.60
2018-03-04T05:56:44.518Z,76.70
2018-03-04T05:59:15.063Z,76.40
2018-03-04T06:01:42.753Z,76.00
2018-03-04T06:04:11.110Z,76.90
2018-03-04T06:06:39.054Z,76.10
2018-03-04T06:09:07.734Z,76.20
2018-03-04T06:11:36.265Z,76.20
2018-03-04T06:14:04.760Z,76.30
2018-03-04T06:16:32.437Z,76.70
2018-03-04T06:19:00.128Z,76.70
2018-03-04T06:21:27.796Z,76.50
2018-03-04T06:23:55.517Z,76.50
2018-03-04T06:26:23.419Z,76.70
2018-03-04T06:28:51.170Z,77.20
2018-03-04T06:31:18.828Z,77.40
2018-03-04T06:33:46.655Z,77.30
2018-03-04T06:36:15.068Z,77.50
2018-03-04T06:38:42.762Z,77.50
2018-03-04T06:41:10.585Z,77.20
2018-03-04T06:43:39.145Z,77.10
2018-03-04T06:46:08.200Z,77.20
2018-03-04T06:48:37.040Z,77.10
2018-03-04T06:51:04.788Z,77.10
2018-03-04T06:53:32.532Z,77.20
2018-03-04T06:56:00.403Z,77.10
2018-03-04T06:58:28.180Z,77.10
2018-03-04T07:00:55.879Z,77.10
2018-03-04T07:03:23.559Z,76.90
2018-03-04T07:05:52.151Z,76.90
2018-03-04T07:08:20.048Z,76.60
2018-03-04T07:10:47.914Z,76.30
2018-03-04T07:13:16.483Z,76.30
2018-03-04T07:15:44.458Z,76.20
2018-03-04T07:18:12.212Z,75.50
2018-03-04T07:20:39.924Z,76.20
2018-03-04T07:23:08.108Z,75.90
2018-03-04T07:25:35.810Z,75.80
2018-03-04T07:28:03.588Z,76.60
2018-03-04T07:30:31.431Z,76.00
2018-03-04T07:32:59.109Z,76.60
2018-03-04T07:35:26.804Z,75.60
2018-03-04T07:37:56.031Z,76.00
2018-03-04T07:40:23.725Z,76.00
2018-03-04T07:42:52.563Z,75.80
2018-03-04T07:45:20.259Z,75.60
2018-03-04T07:47:48.020Z,75.50
2018-03-04T07:50:15.817Z,75.30
2018-03-04T07:52:43.599Z,75.20
2018-03-04T07:55:11.307Z,75.60
2018-03-04T07:57:39.736Z,75.80
2018-03-04T08:00:20.230Z,75.60
2018-03-04T08:02:47.978Z,75.60
2018-03-04T08:05:15.636Z,75.20
2018-03-04T08:07:43.303Z,74.90
2018-03-04T08:10:11.749Z,75.00
2018-03-04T08:12:39.386Z,75.10
2018-03-04T08:15:07.838Z,75.10
2018-03-04T08:17:38.327Z,75.10
2018-03-04T08:20:06.878Z,74.70
2018-03-04T08:22:35.228Z,74.60
2018-03-04T08:25:14.716Z,74.50
2018-03-04T08:27:54.987Z,74.60
2018-03-04T08:30:23.941Z,74.50
2018-03-04T08:32:51.647Z,74.50
2018-03-04T08:35:20.306Z,74.90
2018-03-04T08:37:48.195Z,74.60
2018-03-04T08:40:16.001Z,74.30
2018-03-04T08:42:43.734Z,73.40
2018-03-04T08:45:11.555Z,72.20
2018-03-04T08:47:39.338Z,72.30
2018-03-04T08:50:07.800Z,73.00
2018-03-04T08:52:36.215Z,73.00
2018-03-04T08:55:04.218Z,72.60
2018-03-04T08:57:34.688Z,72.50
2018-03-04T09:00:02.521Z,72.70
2018-03-04T09:02:31.094Z,72.60
2018-03-04T09:05:01.052Z,73.20
2018-03-04T09:07:28.935Z,71.80
2018-03-04T09:09:56.714Z,72.30
2018-03-04T09:12:24.691Z,72.10
2018-03-04T09:14:54.940Z,71.70
2018-03-04T09:17:23.210Z,72.40
2018-03-04T09:19:50.890Z,71.80
2018-03-04T09:22:18.650Z,71.50
2018-03-04T09:24:47.096Z,72.10
2018-03-04T09:27:14.898Z,72.10
2018-03-04T09:29:43.521Z,72.00
2018-03-04T09:32:14.434Z,71.20
2018-03-04T09:34:42.117Z,71.20
2018-03-04T09:37:12.247Z,69.80
2018-03-04T09:39:39.972Z,69.80
2018-03-04T09:42:07.717Z,69.10
2018-03-04T09:44:35.412Z,68.50
2018-03-04T09:47:03.159Z,68.70
2018-03-04T09:49:32.676Z,68.50
2018-03-04T09:52:01.204Z,68.50
2018-03-04T09:54:28.901Z,68.50
2018-03-04T09:56:57.379Z,68.80
2018-03-04T09:59:29.089Z,69.00
2018-03-04T10:02:01.504Z,67.50
2018-03-04T10:04:32.955Z,65.30
2018-03-04T10:07:08.795Z,63.10
2018-03-04T10:09:42.171Z,61.10
2018-03-04T10:12:12.218Z,61.30
2018-03-04T10:17:31.399Z,58.50
2018-03-04T10:20:00.994Z,57.20
2018-03-04T10:22:35.313Z,59.40
2018-03-04T10:25:12.791Z,57.90
2018-03-04T10:27:46.775Z,56.40
2018-03-04T10:30:17.649Z,57.00
2018-03-04T10:32:45.388Z,56.20
2018-03-04T10:35:14.323Z,56.60
2018-03-04T10:37:42.222Z,55.10
2018-03-04T10:40:11.006Z,55.00
2018-03-04T10:42:40.271Z,54.80
2018-03-04T10:45:11.241Z,54.80
2018-03-04T10:47:39.047Z,52.90
2018-03-04T10:50:06.765Z,55.00
2018-03-04T10:52:35.445Z,56.50
2018-03-04T10:55:05.757Z,56.20
2018-03-04T10:57:33.545Z,56.20
2018-03-04T11:00:02.139Z,58.40
2018-03-04T11:02:36.333Z,56.20
2018-03-04T11:05:05.531Z,56.20
2018-03-04T11:07:33.451Z,56.20
2018-03-04T11:10:01.233Z,57.20
2018-03-04T11:12:30.150Z,55.20
2018-03-04T11:14:58.381Z,56.50
2018-03-04T11:17:26.470Z,54.30
2018-03-04T11:19:54.621Z,56.90
2018-03-04T11:22:27.097Z,56.40
2018-03-04T11:24:54.808Z,56.40
2018-03-04T11:27:22.540Z,55.70
2018-03-04T11:29:50.427Z,57.40
2018-03-04T11:32:19.646Z,55.70
2018-03-04T11:34:47.424Z,54.60
2018-03-04T11:37:16.682Z,57.10
2018-03-04T11:39:44.807Z,57.00
2018-03-04T11:42:13.347Z,56.30
2018-03-04T11:44:41.060Z,57.10
2018-03-04T11:47:08.826Z,54.90
2018-03-04T11:49:36.657Z,55.20
2018-03-04T11:52:11.414Z,56.00
2018-03-04T11:54:40.072Z,55.90
2018-03-04T11:57:17.445Z,55.10
2018-03-04T11:59:45.263Z,55.10
2018-03-04T12:02:14.357Z,55.00
2018-03-04T12:04:42.021Z,54.50
2018-03-04T12:07:11.136Z,56.10
2018-03-04T12:09:38.939Z,53.40
2018-03-04T12:12:06.794Z,54.50
2018-03-04T12:14:34.672Z,56.70
2018-03-04T12:17:02.598Z,56.00
2018-03-04T12:19:32.840Z,55.70
2018-03-04T12:22:00.704Z,55.60
2018-03-04T12:24:28.447Z,55.10
2018-03-04T12:26:57.807Z,56.60
2018-03-04T12:29:27.261Z,55.30
2018-03-04T12:31:55.231Z,55.30
2018-03-04T12:34:23.069Z,55.80
2018-03-04T12:36:50.784Z,56.60
2018-03-04T12:39:19.767Z,58.20
2018-03-04T12:41:47.467Z,57.10
2018-03-04T12:44:15.219Z,55.80
2018-03-04T12:46:42.981Z,54.40
2018-03-04T12:49:10.953Z,53.90
2018-03-04T12:51:39.766Z,55.50
2018-03-04T12:54:07.564Z,55.00
2018-03-04T12:56:35.307Z,54.30
2018-03-04T12:59:03.911Z,54.10
2018-03-04T13:01:32.395Z,54.00
2018-03-04T13:04:00.199Z,54.60
2018-03-04T13:06:28.036Z,55.30
2018-03-04T13:08:56.578Z,55.10
2018-03-04T13:11:24.343Z,54.50
2018-03-04T13:13:52.772Z,55.00
2018-03-04T13:16:20.517Z,55.10
2018-03-04T13:18:48.193Z,54.90
2018-03-04T13:21:16.108Z,53.80
2018-03-04T13:23:47.778Z,53.70
2018-03-04T13:26:15.609Z,53.80
2018-03-04T13:28:44.150Z,53.10
2018-03-04T13:31:11.942Z,53.00
2018-03-04T13:33:41.306Z,54.50
2018-03-04T13:36:09.685Z,54.50
2018-03-04T13:38:37.675Z,54.40
2018-03-04T13:41:05.474Z,55.10
2018-03-04T13:43:35.384Z,55.40
2018-03-04T13:46:03.135Z,54.20
2018-03-04T13:48:50.995Z,54.70
2018-03-04T13:51:22.371Z,53.80
2018-03-04T13:53:50.155Z,53.90
2018-03-04T13:56:17.859Z,54.20
2018-03-04T13:58:45.705Z,54.00
2018-03-04T14:01:14.237Z,53.90
2018-03-04T14:03:42.141Z,53.80
2018-03-04T14:06:09.837Z,53.80
2018-03-04T14:08:37.806Z,54.00
2018-03-04T14:11:06.129Z,54.00
2018-03-04T14:13:33.909Z,53.60
2018-03-04T14:16:03.144Z,54.00
2018-03-04T14:18:32.223Z,54.00
2018-03-04T14:21:00.230Z,54.50
2018-03-04T14:23:40.111Z,55.50
2018-03-04T14:26:07.957Z,54.60
2018-03-04T14:28:37.533Z,55.70
2018-03-04T14:31:05.330Z,55.50
2018-03-04T14:33:34.081Z,54.40
2018-03-04T14:36:02.308Z,54.30
2018-03-04T14:38:30.145Z,54.00
2018-03-04T14:41:01.694Z,54.30
2018-03-04T14:43:29.475Z,54.60
2018-03-04T14:46:00.569Z,55.60
2018-03-04T14:48:29.020Z,55.80
2018-03-04T14:50:59.777Z,55.90
2018-03-04T14:53:28.127Z,55.80
2018-03-04T14:55:56.025Z,56.10
2018-03-04T14:58:24.484Z,56.40
2018-03-04T15:00:54.016Z,55.90
2018-03-04T15:03:29.406Z,57.10
2018-03-04T15:05:57.429Z,57.20
2018-03-04T15:08:26.880Z,56.00
2018-03-04T15:10:55.646Z,55.30
2018-03-04T15:13:23.405Z,55.80
2018-03-04T15:15:51.304Z,56.00
2018-03-04T15:18:26.284Z,56.00
2018-03-04T15:20:56.315Z,56.80
2018-03-04T15:23:24.402Z,56.70
2018-03-04T15:25:53.749Z,56.10
2018-03-04T15:28:23.064Z,56.60
2018-03-04T15:30:52.588Z,56.50
2018-03-04T15:33:24.963Z,56.60
2018-03-04T15:35:53.334Z,58.00
2018-03-04T15:38:25.725Z,56.60
2018-03-04T15:40:57.370Z,56.90
2018-03-04T15:43:31.577Z,56.60
2018-03-04T15:46:01.927Z,57.00
2018-03-04T15:48:37.571Z,57.20
2018-03-04T15:51:05.382Z,57.10
2018-03-04T15:53:33.253Z,56.60
2018-03-04T15:56:00.991Z,57.40
2018-03-04T15:58:28.854Z,57.50
2018-03-04T16:00:56.694Z,57.70
2018-03-04T16:03:25.237Z,57.80
2018-03-04T16:05:53.030Z,57.70
2018-03-04T16:08:21.171Z,57.90
2018-03-04T16:10:52.224Z,58.00
2018-03-04T16:16:05.245Z,58.30
2018-03-04T16:18:33.185Z,58.40
2018-03-04T16:21:03.238Z,58.50
2018-03-04T16:23:32.035Z,58.50
2018-03-04T16:26:01.594Z,58.50
2018-03-04T16:28:29.622Z,58.50
2018-03-04T16:30:59.237Z,58.60
2018-03-04T16:33:30.313Z,58.60
2018-03-04T16:35:59.106Z,59.80
2018-03-04T16:38:27.745Z,59.70
2018-03-04T16:40:56.448Z,60.40
2018-03-04T16:43:24.953Z,60.90
2018-03-04T16:45:52.814Z,61.50
2018-03-04T16:48:21.507Z,61.70
2018-03-04T16:50:49.288Z,62.40
2018-03-04T16:53:17.949Z,62.20
2018-03-04T16:55:45.756Z,62.50
2018-03-04T16:58:14.172Z,62.10
2018-03-04T17:00:43.104Z,62.70
2018-03-04T17:03:12.008Z,62.20
2018-03-04T17:05:39.983Z,62.70
2018-03-04T17:08:09.882Z,62.50
2018-03-04T17:10:38.469Z,62.00
2018-03-04T17:13:06.305Z,62.00
2018-03-04T17:15:35.178Z,62.00
2018-03-04T17:18:03.025Z,62.60
2018-03-04T17:20:30.830Z,62.20
2018-03-04T17:22:58.537Z,62.10
2018-03-04T17:25:26.995Z,62.80
2018-03-04T17:27:54.759Z,62.80
2018-03-04T17:30:22.633Z,62.40
2018-03-04T17:32:52.094Z,62.70
2018-03-04T17:35:19.839Z,62.70
2018-03-04T17:37:47.693Z,62.70
2018-03-04T17:40:15.397Z,63.50
2018-03-04T17:42:43.211Z,63.00
2018-03-04T17:45:10.931Z,63.40
2018-03-04T17:47:38.729Z,63.80
2018-03-04T17:50:07.518Z,63.50
2018-03-04T17:52:36.044Z,63.80
2018-03-04T17:55:03.868Z,63.80
2018-03-04T17:57:39.212Z,63.60
2018-03-04T18:00:08.168Z,63.80
2018-03-04T18:02:36.750Z,63.50
2018-03-04T18:07:45.506Z,63.60
2018-03-04T18:10:15.308Z,64.00
2018-03-04T18:12:44.682Z,63.90
2018-03-04T18:17:49.078Z,64.70
2018-03-04T18:20:17.596Z,64.10
2018-03-04T18:22:46.053Z,64.10
2018-03-04T18:25:13.921Z,64.10
2018-03-04T18:27:42.511Z,64.40
2018-03-04T18:30:11.128Z,64.30
2018-03-04T18:32:40.781Z,64.20
2018-03-04T18:35:09.037Z,64.20
2018-03-04T18:37:38.543Z,64.20
2018-03-04T18:40:09.238Z,64.30
2018-03-04T18:42:39.528Z,64.00
2018-03-04T18:45:11.832Z,64.20
2018-03-04T18:47:43.623Z,64.20
2018-03-04T18:50:11.494Z,63.80
2018-03-04T18:52:40.044Z,64.80
2018-03-04T18:55:07.819Z,64.60
2018-03-04T18:57:35.638Z,65.00
2018-03-04T19:00:03.653Z,64.80
2018-03-04T19:02:31.753Z,64.80
2018-03-04T19:05:00.382Z,65.30
2018-03-04T19:07:28.330Z,64.80
2018-03-04T19:09:56.351Z,64.90
2018-03-04T19:12:26.844Z,65.00
2018-03-04T19:15:00.938Z,65.20
2018-03-04T19:17:29.892Z,65.30
2018-03-04T19:19:58.214Z,65.30
2018-03-04T19:22:30.025Z,63.90
2018-03-04T19:24:58.033Z,65.40
2018-03-04T19:27:25.742Z,65.60
2018-03-04T19:29:56.124Z,65.60
2018-03-04T19:32:39.927Z,65.40
2018-03-04T19:35:08.828Z,65.60
2018-03-04T19:40:15.327Z,65.60
2018-03-04T19:42:44.353Z,65.60
2018-03-04T19:45:13.947Z,65.90
2018-03-04T19:47:42.394Z,66.20
2018-03-04T19:50:10.532Z,66.00
2018-03-04T19:52:45.919Z,66.00
2018-03-04T19:55:15.758Z,66.10
2018-03-04T19:57:47.518Z,66.00
2018-03-04T20:00:17.964Z,66.10
2018-03-04T20:02:54.151Z,66.00
2018-03-04T20:05:23.514Z,66.10
2018-03-04T20:07:51.527Z,66.80
2018-03-04T20:10:20.478Z,67.30
2018-03-04T20:12:53.027Z,67.20
2018-03-04T20:15:20.854Z,67.10
2018-03-04T20:17:48.973Z,67.20
2018-03-04T20:20:18.647Z,67.00
2018-03-04T20:22:53.086Z,67.00
2018-03-04T20:25:21.113Z,67.00
2018-03-04T20:27:52.670Z,67.10
2018-03-04T20:30:23.392Z,66.90
2018-03-04T20:32:51.140Z,66.80
2018-03-04T20:35:25.120Z,67.00
2018-03-04T20:37:53.160Z,66.80
2018-03-04T20:40:21.839Z,67.20
2018-03-04T20:42:49.935Z,67.40
2018-03-04T20:45:19.828Z,67.40
2018-03-04T20:47:49.704Z,67.20
2018-03-04T20:52:52.667Z,67.30
2018-03-04T20:55:20.460Z,67.20
2018-03-04T20:57:48.451Z,67.30
2018-03-04T21:00:16.368Z,67.50
2018-03-04T21:02:44.656Z,67.70
2018-03-04T21:05:12.937Z,67.60
2018-03-04T21:07:40.923Z,67.60
2018-03-04T21:10:09.519Z,67.30
2018-03-04T21:12:37.425Z,67.30
2018-03-04T21:15:06.490Z,68.10
2018-03-04T21:17:34.271Z,67.90
2018-03-04T21:20:02.490Z,68.00
2018-03-04T21:22:30.376Z,68.10
2018-03-04T21:24:59.769Z,68.10
2018-03-04T21:27:28.225Z,68.00
2018-03-04T21:29:57.018Z,68.20
2018-03-04T21:32:26.869Z,68.20
2018-03-04T21:34:57.561Z,67.90
2018-03-04T21:37:26.823Z,68.70
2018-03-04T21:39:57.786Z,68.00
2018-03-04T21:42:26.438Z,67.70
2018-03-04T21:44:54.398Z,67.60
2018-03-04T21:47:22.525Z,67.40
2018-03-04T21:49:50.826Z,67.60
2018-03-04T21:52:18.619Z,67.40
2018-03-04T21:54:46.586Z,67.50
2018-03-04T21:57:15.353Z,67.10
2018-03-04T21:59:48.884Z,66.80
2018-03-04T22:02:16.624Z,66.80
2018-03-04T22:04:45.218Z,66.70
2018-03-04T22:07:13.106Z,66.50
2018-03-04T22:09:41.977Z,66.30
2018-03-04T22:12:10.250Z,66.50
2018-03-04T22:14:56.231Z,66.30
2018-03-04T22:17:26.333Z,66.40
2018-03-04T22:19:54.145Z,66.50
2018-03-04T22:22:23.115Z,66.20
2018-03-04T22:24:51.895Z,66.10
2018-03-04T22:27:19.738Z,66.10
2018-03-04T22:29:47.563Z,65.80
2018-03-04T22:32:15.370Z,65.70
2018-03-04T22:34:43.126Z,65.50
2018-03-04T22:37:12.628Z,65.70
2018-03-04T22:39:40.248Z,65.60
2018-03-04T22:42:09.522Z,65.70
2018-03-04T22:44:38.376Z,65.90
2018-03-04T22:47:07.905Z,66.10
2018-03-04T22:49:35.607Z,66.10
2018-03-04T22:52:03.487Z,66.10
2018-03-04T22:54:32.008Z,65.80
2018-03-04T22:57:00.672Z,65.70
2018-03-04T22:59:28.561Z,66.00
2018-03-04T23:01:57.434Z,65.90
2018-03-04T23:04:25.194Z,65.80
2018-03-04T23:06:52.903Z,65.80
2018-03-04T23:09:21.672Z,65.90
2018-03-04T23:11:49.382Z,65.60
2018-03-04T23:14:18.046Z,65.80
2018-03-04T23:16:45.703Z,65.80
2018-03-04T23:19:13.423Z,65.20
2018-03-04T23:21:41.137Z,65.30
2018-03-04T23:24:08.951Z,65.00
2018-03-04T23:26:36.748Z,64.80
2018-03-04T23:29:05.235Z,64.90
2018-03-04T23:31:32.992Z,64.80
2018-03-04T23:34:00.714Z,64.70
2018-03-04T23:36:29.485Z,64.80
2018-03-04T23:38:58.032Z,65.50
2018-03-04T23:41:26.766Z,65.50
2018-03-04T23:43:54.489Z,65.40
2018-03-04T23:46:22.392Z,65.50
2018-03-04T23:48:50.090Z,65.70
2018-03-04T23:51:17.791Z,65.60
2018-03-04T23:53:45.499Z,65.60
2018-03-04T23:56:13.799Z,66.00
2018-03-04T23:58:41.692Z,66.00
